Time;durP1;ratioP1;P1;durP2;ratioP2;P2;SDS_P1;SDS_P2;PMS_P1;PMS_P2;Temp;Humidity;BMP_temperature;BMP_pressure;BME280_temperature;BME280_humidity;BME280_pressure;Samples;Min_cycle;Max_cycle;Signal;HPM_P1;HPM_P2
2022/07/25 00:02:13;;;;;;;7.03;5.35;;;;;;;-150.27;100.00;61272.81;5273909;28;20050;-75
2022/07/25 00:04:44;;;;;;;6.45;5.63;;;;;;;-150.27;100.00;61272.81;5271314;28;20102;-75
2022/07/25 00:07:16;;;;;;;6.22;5.63;;;;;;;-150.27;100.00;61272.81;5270830;28;20035;-76
2022/07/25 00:09:47;;;;;;;9.65;5.10;;;;;;;-150.27;100.00;61272.81;5271579;28;20028;-75
2022/07/25 00:12:19;;;;;;;6.63;5.60;;;;;;;-150.27;100.00;61272.81;5273945;28;20064;-75
2022/07/25 00:14:50;;;;;;;7.47;5.57;;;;;;;-150.27;100.00;61272.81;5231726;28;20057;-75
2022/07/25 00:17:21;;;;;;;6.97;6.28;;;;;;;-150.27;100.00;61272.81;5250444;28;20035;-75
2022/07/25 00:19:53;;;;;;;6.05;5.45;;;;;;;-150.27;100.00;61272.81;5250638;28;20025;-75
2022/07/25 00:22:24;;;;;;;7.07;5.80;;;;;;;-150.27;100.00;61272.81;5249439;28;20415;-75
2022/07/25 00:24:56;;;;;;;12.15;6.30;;;;;;;-150.27;100.00;61272.81;5248369;28;20419;-75
2022/07/25 00:27:28;;;;;;;8.07;5.60;;;;;;;-150.27;100.00;61272.81;5250182;28;20029;-75
2022/07/25 00:29:59;;;;;;;10.00;6.00;;;;;;;-150.27;100.00;61272.81;5246868;28;20040;-75
2022/07/25 00:32:30;;;;;;;7.90;5.63;;;;;;;-150.27;100.00;61272.81;5249481;28;20082;-75
2022/07/25 00:35:02;;;;;;;11.05;6.53;;;;;;;-150.27;100.00;61272.81;5249895;28;20561;-75
2022/07/25 00:37:33;;;;;;;7.03;6.05;;;;;;;-150.27;100.00;61272.81;5249828;28;20044;-75
2022/07/25 00:40:05;;;;;;;7.40;5.40;;;;;;;-150.27;100.00;61272.81;5250292;28;20615;-75
2022/07/25 00:42:36;;;;;;;6.15;5.55;;;;;;;-150.27;100.00;61272.81;5250924;28;20044;-75
2022/07/25 00:45:08;;;;;;;10.98;6.20;;;;;;;-150.27;100.00;61272.81;5248149;28;20044;-75
2022/07/25 00:47:39;;;;;;;7.35;6.28;;;;;;;-150.27;100.00;61272.81;5249475;28;20130;-75
2022/07/25 00:50:11;;;;;;;6.68;5.95;;;;;;;-150.27;100.00;61272.81;5249523;28;20067;-75
2022/07/25 00:52:42;;;;;;;7.15;6.05;;;;;;;-150.27;100.00;61272.81;5247873;28;20029;-75
2022/07/25 00:55:14;;;;;;;7.80;6.13;;;;;;;-150.27;100.00;61272.81;5249915;28;20051;-75
2022/07/25 00:57:45;;;;;;;7.38;5.43;;;;;;;-150.27;100.00;61272.81;5249858;28;20170;-75
2022/07/25 01:00:17;;;;;;;7.35;5.40;;;;;;;-150.27;100.00;61272.81;5246344;28;20032;-75
2022/07/25 01:02:48;;;;;;;8.02;5.40;;;;;;;-150.27;100.00;61272.81;5250390;28;20016;-75
2022/07/25 01:05:20;;;;;;;12.73;6.28;;;;;;;-150.27;100.00;61272.81;5248498;28;20463;-75
2022/07/25 01:07:52;;;;;;;7.93;5.57;;;;;;;-150.27;100.00;61272.81;5249351;28;20017;-75
2022/07/25 01:10:24;;;;;;;8.10;5.55;;;;;;;-150.27;100.00;61272.81;5248413;28;20810;-75
2022/07/25 01:12:55;;;;;;;7.68;5.75;;;;;;;-150.27;100.00;61272.81;5251186;28;20128;-75
2022/07/25 01:15:26;;;;;;;7.40;5.68;;;;;;;-150.27;100.00;61272.81;5269208;28;20048;-75
2022/07/25 01:17:57;;;;;;;6.32;5.72;;;;;;;-150.27;100.00;61272.81;5252377;28;20033;-75
2022/07/25 01:20:31;;;;;;;6.90;5.55;;;;;;;-150.27;100.00;61272.81;5265644;28;20024;-75
2022/07/25 01:23:02;;;;;;;8.90;6.10;;;;;;;-150.27;100.00;61272.81;5267538;28;20479;-75
2022/07/25 01:25:34;;;;;;;9.48;5.55;;;;;;;-150.27;100.00;61272.81;5269746;28;20085;-75
2022/07/25 01:28:05;;;;;;;8.93;6.18;;;;;;;-150.27;100.00;61272.81;5268965;28;20056;-75
2022/07/25 01:30:36;;;;;;;5.93;5.30;;;;;;;-150.27;100.00;61272.81;5250776;28;20020;-75
2022/07/25 01:33:08;;;;;;;8.15;5.60;;;;;;;-150.27;100.00;61272.81;5267783;28;20024;-75
2022/07/25 01:35:39;;;;;;;8.88;5.70;;;;;;;-150.27;100.00;61272.81;5268438;28;20090;-76
2022/07/25 01:38:11;;;;;;;7.05;6.20;;;;;;;-150.27;100.00;61272.81;5270253;28;20042;-75
2022/07/25 01:40:43;;;;;;;7.57;5.05;;;;;;;-150.27;100.00;61272.81;5268415;28;20086;-75
2022/07/25 01:43:14;;;;;;;6.95;5.68;;;;;;;-150.27;100.00;61272.81;5268498;28;20047;-74
2022/07/25 01:45:45;;;;;;;10.02;6.00;;;;;;;-150.27;100.00;61272.81;5266994;28;20028;-75
2022/07/25 01:48:17;;;;;;;6.35;5.25;;;;;;;-150.27;100.00;61272.81;5267809;28;20051;-75
2022/07/25 01:50:48;;;;;;;9.40;6.10;;;;;;;-150.27;100.00;61272.81;5268958;28;20078;-75
2022/07/25 01:53:20;;;;;;;7.00;6.13;;;;;;;-150.27;100.00;61272.81;5268739;28;20031;-75
2022/07/25 01:55:51;;;;;;;6.30;5.70;;;;;;;-150.27;100.00;61272.81;5269274;28;20040;-75
2022/07/25 01:58:22;;;;;;;11.57;5.82;;;;;;;-150.27;100.00;61272.81;5270456;28;20119;-75
2022/07/25 02:00:53;;;;;;;7.20;5.85;;;;;;;-150.27;100.00;61272.81;5240651;28;20059;-75
2022/07/25 02:03:31;;;;;;;10.65;5.70;;;;;;;-150.27;100.00;61272.81;5244243;28;20115;-75
2022/07/25 02:06:06;;;;;;;6.75;5.03;;;;;;;-150.27;100.00;61272.81;5262760;28;20045;-75
2022/07/25 02:08:38;;;;;;;7.72;5.72;;;;;;;-150.27;100.00;61272.81;5250413;28;20040;-75
2022/07/25 02:11:09;;;;;;;10.82;5.10;;;;;;;-150.27;100.00;61272.81;5249604;28;20036;-75
2022/07/25 02:13:40;;;;;;;7.30;5.75;;;;;;;-150.27;100.00;61272.81;5267605;28;20048;-76
2022/07/25 02:16:12;;;;;;;8.20;6.00;;;;;;;-150.27;100.00;61272.81;5267297;28;20040;-76
2022/07/25 02:18:43;;;;;;;6.30;5.45;;;;;;;-150.27;100.00;61272.81;5267806;28;20744;-75
2022/07/25 02:21:14;;;;;;;9.52;6.15;;;;;;;-150.27;100.00;61272.81;5249631;28;20491;-75
2022/07/25 02:23:46;;;;;;;6.25;5.65;;;;;;;-150.27;100.00;61272.81;5268955;28;20036;-76
2022/07/25 02:26:17;;;;;;;7.38;5.80;;;;;;;-150.27;100.00;61272.81;5268497;28;20040;-75
2022/07/25 02:28:49;;;;;;;8.32;5.20;;;;;;;-150.27;100.00;61272.81;5250607;28;20410;-76
2022/07/25 02:31:20;;;;;;;9.00;5.38;;;;;;;-150.27;100.00;61272.81;5267643;28;20563;-75
2022/07/25 02:33:52;;;;;;;8.20;5.97;;;;;;;-150.27;100.00;61272.81;5267749;28;20170;-75
2022/07/25 02:36:23;;;;;;;8.60;5.53;;;;;;;-150.27;100.00;61272.81;5266916;28;20036;-75
2022/07/25 02:38:54;;;;;;;6.55;4.90;;;;;;;-150.27;100.00;61272.81;5267640;28;20055;-75
2022/07/25 02:41:25;;;;;;;5.72;5.20;;;;;;;-150.27;100.00;61272.81;5267900;28;20024;-76
2022/07/25 02:43:57;;;;;;;8.18;5.25;;;;;;;-150.27;100.00;61272.81;5268189;28;20035;-75
2022/07/25 02:46:28;;;;;;;13.70;5.55;;;;;;;-150.27;100.00;61272.81;5267758;28;20040;-76
2022/07/25 02:48:59;;;;;;;6.72;5.57;;;;;;;-150.27;100.00;61272.81;5266996;28;20063;-75
2022/07/25 02:51:31;;;;;;;7.57;5.60;;;;;;;-150.27;100.00;61272.81;5250356;28;20025;-75
2022/07/25 02:54:02;;;;;;;7.65;5.38;;;;;;;-150.27;100.00;61272.81;5250600;28;20082;-75
2022/07/25 02:56:33;;;;;;;8.25;5.53;;;;;;;-150.27;100.00;61272.81;5266327;28;20036;-75
2022/07/25 02:59:05;;;;;;;8.73;4.97;;;;;;;-150.27;100.00;61272.81;5250724;28;20036;-75
2022/07/25 03:01:37;;;;;;;8.48;5.63;;;;;;;-150.27;100.00;61272.81;5267726;28;20108;-75
2022/07/25 03:04:08;;;;;;;6.00;5.35;;;;;;;-150.27;100.00;61272.81;5249377;28;20039;-75
2022/07/25 03:06:40;;;;;;;8.70;5.80;;;;;;;-150.27;100.00;61272.81;5267717;28;20033;-75
2022/07/25 03:09:11;;;;;;;6.03;5.15;;;;;;;-150.27;100.00;61272.81;5265544;28;20495;-76
2022/07/25 03:11:43;;;;;;;6.82;5.80;;;;;;;-150.27;100.00;61272.81;5267327;28;20031;-75
2022/07/25 03:14:15;;;;;;;8.23;6.10;;;;;;;-150.27;100.00;61272.81;5244975;28;20099;-75
2022/07/25 03:16:46;;;;;;;6.93;4.95;;;;;;;-150.27;100.00;61272.81;5267118;28;20615;-75
2022/07/25 03:19:17;;;;;;;11.43;5.43;;;;;;;-150.27;100.00;61272.81;5268150;28;20021;-75
2022/07/25 03:21:48;;;;;;;9.45;5.80;;;;;;;-150.27;100.00;61272.81;5268362;28;20031;-75
2022/07/25 03:24:20;;;;;;;7.63;5.97;;;;;;;-150.27;100.00;61272.81;5267322;28;20039;-75
2022/07/25 03:26:51;;;;;;;8.20;4.78;;;;;;;-150.27;100.00;61272.81;5268674;28;20021;-76
2022/07/25 03:29:22;;;;;;;10.82;5.25;;;;;;;-150.27;100.00;61272.81;5267300;28;20085;-75
2022/07/25 03:31:54;;;;;;;7.28;5.40;;;;;;;-150.27;100.00;61272.81;5267470;28;20585;-75
2022/07/25 03:34:26;;;;;;;7.55;5.32;;;;;;;-150.27;100.00;61272.81;5269003;28;20025;-75
2022/07/25 03:36:59;;;;;;;7.75;5.30;;;;;;;-150.27;100.00;61272.81;5253530;28;20037;-75
2022/07/25 03:39:31;;;;;;;5.95;5.32;;;;;;;-150.27;100.00;61272.81;5272078;28;20029;-75
2022/07/25 03:42:02;;;;;;;6.35;5.22;;;;;;;-150.27;100.00;61272.81;5252596;28;20246;-76
2022/07/25 03:44:34;;;;;;;7.93;5.55;;;;;;;-150.27;100.00;61272.81;5270999;28;20036;-75
2022/07/25 03:47:05;;;;;;;15.25;6.72;;;;;;;-150.27;100.00;61272.81;5253419;28;20046;-75
2022/07/25 03:49:37;;;;;;;8.70;5.55;;;;;;;-150.27;100.00;61272.81;5272051;28;20033;-76
2022/07/25 03:52:08;;;;;;;8.60;5.85;;;;;;;-150.27;100.00;61272.81;5271098;28;20012;-76
2022/07/25 03:54:39;;;;;;;9.02;5.40;;;;;;;-150.27;100.00;61272.81;5272207;28;20147;-76
2022/07/25 03:57:11;;;;;;;12.98;6.00;;;;;;;-150.27;100.00;61272.81;5270774;28;20044;-75
2022/07/25 03:59:42;;;;;;;9.23;5.93;;;;;;;-150.27;100.00;61272.81;5270305;28;20950;-75
2022/07/25 04:02:13;;;;;;;6.10;5.18;;;;;;;-150.27;100.00;61272.81;5271171;28;20032;-75
2022/07/25 04:04:45;;;;;;;12.50;5.93;;;;;;;-150.27;100.00;61272.81;5253203;28;20032;-75
2022/07/25 04:07:17;;;;;;;11.82;6.10;;;;;;;-150.27;100.00;61272.81;5252052;28;20674;-75
2022/07/25 04:09:48;;;;;;;7.47;5.30;;;;;;;-150.27;100.00;61272.81;5271222;28;20039;-75
2022/07/25 04:12:19;;;;;;;8.70;5.97;;;;;;;-150.27;100.00;61272.81;5271336;28;20563;-75
2022/07/25 04:14:50;;;;;;;9.88;5.93;;;;;;;-150.27;100.00;61272.81;5252323;28;20044;-75
2022/07/25 04:17:22;;;;;;;8.57;5.97;;;;;;;-150.27;100.00;61272.81;5271240;28;20036;-75
2022/07/25 04:19:54;;;;;;;8.50;5.90;;;;;;;-150.27;100.00;61272.81;5270915;28;20025;-75
2022/07/25 04:22:25;;;;;;;9.88;5.65;;;;;;;-150.27;100.00;61272.81;5243434;28;20490;-75
2022/07/25 04:24:57;;;;;;;6.78;5.65;;;;;;;-150.27;100.00;61272.81;5270281;28;20043;-75
2022/07/25 04:27:28;;;;;;;6.78;6.07;;;;;;;-150.27;100.00;61272.81;5272161;28;20051;-76
2022/07/25 04:29:59;;;;;;;9.30;5.97;;;;;;;-150.27;100.00;61272.81;5270032;28;20032;-75
2022/07/25 04:32:30;;;;;;;6.90;5.95;;;;;;;-150.27;100.00;61272.81;5270086;28;20085;-75
2022/07/25 04:35:02;;;;;;;6.95;6.18;;;;;;;-150.27;100.00;61272.81;5243695;28;20039;-76
2022/07/25 04:37:35;;;;;;;8.32;5.57;;;;;;;-150.27;100.00;61272.81;5246282;28;20037;-76
2022/07/25 04:40:06;;;;;;;9.07;5.88;;;;;;;-150.27;100.00;61272.81;5270182;28;20032;-76
2022/07/25 04:42:38;;;;;;;6.07;5.43;;;;;;;-150.27;100.00;61272.81;5251396;28;20020;-75
2022/07/25 04:45:09;;;;;;;7.60;6.10;;;;;;;-150.27;100.00;61272.81;5268902;28;20029;-75
2022/07/25 04:47:41;;;;;;;8.32;5.45;;;;;;;-150.27;100.00;61272.81;5267728;28;20029;-76
2022/07/25 04:50:12;;;;;;;8.00;5.60;;;;;;;-150.27;100.00;61272.81;5270423;28;20029;-75
2022/07/25 04:52:43;;;;;;;9.25;5.50;;;;;;;-150.27;100.00;61272.81;5252266;28;20144;-75
2022/07/25 04:55:15;;;;;;;12.85;6.03;;;;;;;-150.27;100.00;61272.81;5269224;28;20113;-75
2022/07/25 04:57:46;;;;;;;10.35;5.70;;;;;;;-150.27;100.00;61272.81;5241793;28;20150;-75
2022/07/25 05:00:17;;;;;;;9.80;5.32;;;;;;;-150.27;100.00;61272.81;5268383;28;20040;-75
2022/07/25 05:02:50;;;;;;;10.73;6.22;;;;;;;-150.27;100.00;61272.81;5251563;28;20036;-75
2022/07/25 05:05:21;;;;;;;9.13;5.95;;;;;;;-150.27;100.00;61272.81;5268662;28;20390;-75
2022/07/25 05:07:57;;;;;;;6.60;5.13;;;;;;;-150.27;100.00;61272.81;5269911;28;20041;-75
2022/07/25 05:10:29;;;;;;;7.70;5.93;;;;;;;-150.27;100.00;61272.81;5251983;28;20043;-75
2022/07/25 05:13:00;;;;;;;10.38;6.28;;;;;;;-150.27;100.00;61272.81;5254393;28;20040;-75
2022/07/25 05:15:32;;;;;;;6.75;5.22;;;;;;;-150.27;100.00;61272.81;5268598;28;20079;-75
2022/07/25 05:18:03;;;;;;;6.80;5.45;;;;;;;-150.27;100.00;61272.81;5269674;28;20043;-75
2022/07/25 05:20:34;;;;;;;10.50;6.80;;;;;;;-150.27;100.00;61272.81;5269356;28;20436;-75
2022/07/25 05:23:06;;;;;;;9.57;6.05;;;;;;;-150.27;100.00;61272.81;5270516;28;20119;-75
2022/07/25 05:25:38;;;;;;;12.45;5.95;;;;;;;-150.27;100.00;61272.81;5269337;28;20437;-75
2022/07/25 05:28:09;;;;;;;7.03;5.45;;;;;;;-150.27;100.00;61272.81;5269265;28;20120;-75
2022/07/25 05:30:40;;;;;;;11.20;5.90;;;;;;;-150.27;100.00;61272.81;5268871;28;20024;-75
2022/07/25 05:33:12;;;;;;;9.32;5.82;;;;;;;-150.27;100.00;61272.81;5241788;28;20110;-75
2022/07/25 05:35:43;;;;;;;11.38;6.40;;;;;;;-150.27;100.00;61272.81;5263714;28;20033;-75
2022/07/25 05:38:14;;;;;;;8.63;6.05;;;;;;;-150.27;100.00;61272.81;5268124;28;20278;-75
2022/07/25 05:40:45;;;;;;;9.85;6.70;;;;;;;-150.27;100.00;61272.81;5268183;28;20052;-75
2022/07/25 05:43:17;;;;;;;7.40;6.18;;;;;;;-150.27;100.00;61272.81;5269425;28;20082;-75
2022/07/25 05:45:49;;;;;;;10.23;6.40;;;;;;;-150.27;100.00;61272.81;5267282;28;20028;-75
2022/07/25 05:48:20;;;;;;;9.07;6.10;;;;;;;-150.27;100.00;61272.81;5269137;28;20394;-75
2022/07/25 05:50:51;;;;;;;7.40;5.88;;;;;;;-150.27;100.00;61272.81;5269715;28;20537;-75
2022/07/25 05:53:22;;;;;;;10.13;6.50;;;;;;;-150.27;100.00;61272.81;5251608;28;20028;-75
2022/07/25 05:55:54;;;;;;;10.13;6.43;;;;;;;-150.27;100.00;61272.81;5268340;28;20032;-75
2022/07/25 05:58:26;;;;;;;6.85;6.15;;;;;;;-150.27;100.00;61272.81;5267827;28;20043;-75
2022/07/25 06:00:57;;;;;;;6.60;5.82;;;;;;;-150.27;100.00;61272.81;5267191;28;20537;-75
2022/07/25 06:03:28;;;;;;;10.85;6.15;;;;;;;-150.27;100.00;61272.81;5269397;28;20134;-75
2022/07/25 06:06:00;;;;;;;10.38;6.93;;;;;;;-150.27;100.00;61272.81;5268683;28;20072;-75
2022/07/25 06:08:32;;;;;;;7.65;6.30;;;;;;;-150.27;100.00;61272.81;5268862;28;20040;-75
2022/07/25 06:11:06;;;;;;;11.05;6.30;;;;;;;-150.27;100.00;61272.81;5268645;28;20032;-75
2022/07/25 06:13:37;;;;;;;10.50;5.93;;;;;;;-150.27;100.00;61272.81;5268038;28;20040;-75
2022/07/25 06:16:08;;;;;;;10.75;6.53;;;;;;;-150.27;100.00;61272.81;5267598;28;20013;-75
2022/07/25 06:18:40;;;;;;;11.18;5.80;;;;;;;-150.27;100.00;61272.81;5267159;28;20063;-75
2022/07/25 06:21:11;;;;;;;11.77;5.10;;;;;;;-150.27;100.00;61272.81;5249508;28;20036;-75
2022/07/25 06:23:42;;;;;;;12.43;5.53;;;;;;;-150.27;100.00;61272.81;5269101;28;20050;-75
2022/07/25 06:26:13;;;;;;;8.20;5.50;;;;;;;-150.27;100.00;61272.81;5250104;28;20105;-75
2022/07/25 06:28:45;;;;;;;12.23;5.68;;;;;;;-150.27;100.00;61272.81;5266943;28;20079;-75
2022/07/25 06:31:17;;;;;;;7.53;5.65;;;;;;;-150.27;100.00;61272.81;5268672;28;20025;-75
2022/07/25 06:33:49;;;;;;;6.25;5.50;;;;;;;-150.27;100.00;61272.81;5267408;28;20039;-75
2022/07/25 06:36:20;;;;;;;8.48;5.00;;;;;;;-150.27;100.00;61272.81;5265251;28;20024;-75
2022/07/25 06:38:52;;;;;;;10.13;5.57;;;;;;;-150.27;100.00;61272.81;5268596;28;20043;-75
2022/07/25 06:41:23;;;;;;;9.13;5.38;;;;;;;-150.27;100.00;61272.81;5267147;28;20032;-75
2022/07/25 06:43:54;;;;;;;8.82;5.30;;;;;;;-150.27;100.00;61272.81;5266946;28;20043;-75
2022/07/25 06:46:29;;;;;;;8.00;5.13;;;;;;;-150.27;100.00;61272.81;5249752;28;20627;-75
2022/07/25 06:49:01;;;;;;;7.10;5.53;;;;;;;-150.27;100.00;61272.81;5265633;28;20035;-75
2022/07/25 06:51:32;;;;;;;8.70;5.45;;;;;;;-150.27;100.00;61272.81;5268037;28;20033;-75
2022/07/25 06:54:03;;;;;;;9.85;4.80;;;;;;;-150.27;100.00;61272.81;5268064;28;20107;-75
2022/07/25 06:56:34;;;;;;;7.22;5.40;;;;;;;-150.27;100.00;61272.81;5266627;28;20052;-75
2022/07/25 06:59:06;;;;;;;10.70;5.07;;;;;;;-150.27;100.00;61272.81;5267609;28;20422;-75
2022/07/25 07:01:37;;;;;;;5.85;4.32;;;;;;;-150.27;100.00;61272.81;5267908;28;20116;-75
2022/07/25 07:04:08;;;;;;;7.78;4.95;;;;;;;-150.27;100.00;61272.81;5249092;28;20040;-75
2022/07/25 07:06:40;;;;;;;12.32;4.65;;;;;;;-150.27;100.00;61272.81;5267095;28;20079;-75
2022/07/25 07:09:11;;;;;;;6.75;4.10;;;;;;;-150.27;100.00;61272.81;5266281;28;20021;-75
2022/07/25 07:11:42;;;;;;;12.77;4.88;;;;;;;-150.27;100.00;61272.81;5272115;28;20032;-75
2022/07/25 07:14:13;;;;;;;14.65;5.53;;;;;;;-150.27;100.00;61272.81;5273190;28;20048;-76
2022/07/25 07:16:45;;;;;;;7.97;4.28;;;;;;;-150.27;100.00;61272.81;5274186;28;20578;-75
2022/07/25 07:19:16;;;;;;;8.35;4.60;;;;;;;-150.27;100.00;61272.81;5270419;28;20036;-75
2022/07/25 07:21:50;;;;;;;6.25;3.70;;;;;;;-150.27;100.00;61272.81;5272978;28;20372;-75
2022/07/25 07:24:22;;;;;;;5.55;3.63;;;;;;;-150.27;100.00;61272.81;5271664;28;20667;-75
2022/07/25 07:26:53;;;;;;;5.65;3.42;;;;;;;-150.27;100.00;61272.81;5272802;28;20033;-75
2022/07/25 07:29:24;;;;;;;7.00;3.25;;;;;;;-150.27;100.00;61272.81;5241706;28;20574;-73
2022/07/25 07:31:56;;;;;;;9.77;3.03;;;;;;;-150.27;100.00;61272.81;5266829;28;20028;-75
2022/07/25 07:34:27;;;;;;;6.80;2.80;;;;;;;-150.27;100.00;61272.81;5270228;28;20078;-75
2022/07/25 07:36:58;;;;;;;7.38;3.45;;;;;;;-150.27;100.00;61272.81;5270747;28;20861;-76
2022/07/25 07:39:29;;;;;;;4.13;2.70;;;;;;;-150.27;100.00;61272.81;5272312;28;20036;-73
2022/07/25 07:42:01;;;;;;;10.60;3.22;;;;;;;-150.27;100.00;61272.81;5271338;28;20039;-76
2022/07/25 07:44:32;;;;;;;6.38;3.22;;;;;;;-150.27;100.00;61272.81;5252041;28;20024;-76
2022/07/25 07:47:03;;;;;;;8.15;2.60;;;;;;;-150.27;100.00;61272.81;5271252;28;20033;-75
2022/07/25 07:49:34;;;;;;;5.32;2.38;;;;;;;-150.27;100.00;61272.81;5270696;28;20032;-76
2022/07/25 07:52:06;;;;;;;7.03;2.08;;;;;;;-150.27;100.00;61272.81;5251066;28;20025;-75
2022/07/25 07:57:27;;;;;;;6.22;2.00;;;;;;;-150.27;100.00;61272.81;5269692;28;20037;-74
2022/07/25 07:59:58;;;;;;;13.40;2.38;;;;;;;-150.27;100.00;61272.81;5269651;28;20460;-74
2022/07/25 08:02:29;;;;;;;7.05;2.00;;;;;;;-150.27;100.00;61272.81;5270842;28;20486;-74
2022/07/25 08:05:00;;;;;;;7.95;2.47;;;;;;;-150.27;100.00;61272.81;5270146;28;20028;-73
2022/07/25 08:07:32;;;;;;;4.50;1.92;;;;;;;-150.27;100.00;61272.81;5269516;28;20655;-74
2022/07/25 08:10:04;;;;;;;7.57;1.77;;;;;;;-150.27;100.00;61272.81;5269772;28;20634;-74
2022/07/25 08:12:39;;;;;;;7.82;1.77;;;;;;;-150.27;100.00;61272.81;5268022;28;20025;-74
2022/07/25 08:15:10;;;;;;;6.65;1.80;;;;;;;-150.27;100.00;61272.81;5267908;28;20025;-74
2022/07/25 08:17:42;;;;;;;3.53;1.50;;;;;;;-150.27;100.00;61272.81;5269351;28;21044;-74
2022/07/25 08:20:13;;;;;;;4.47;1.60;;;;;;;-150.27;100.00;61272.81;5269454;28;20033;-74
2022/07/25 08:22:47;;;;;;;8.90;2.72;;;;;;;-150.27;100.00;61272.81;5269692;28;20103;-72
2022/07/25 08:25:20;;;;;;;5.38;1.50;;;;;;;-150.27;100.00;61272.81;5270954;28;20035;-73
2022/07/25 08:27:52;;;;;;;5.00;1.77;;;;;;;-150.27;100.00;61272.81;5249164;28;20144;-72
2022/07/25 08:30:23;;;;;;;8.65;1.77;;;;;;;-150.27;100.00;61272.81;5265012;28;20035;-71
2022/07/25 08:32:58;;;;;;;3.10;1.60;;;;;;;-150.27;100.00;61272.81;5270136;28;20024;-73
2022/07/25 08:35:31;;;;;;;7.07;1.63;;;;;;;-150.27;100.00;61272.81;5268164;28;20020;-72
2022/07/25 08:38:04;;;;;;;6.17;2.10;;;;;;;-150.27;100.00;61272.81;5270616;28;20036;-72
2022/07/25 08:40:35;;;;;;;8.18;1.40;;;;;;;-150.27;100.00;61272.81;5252029;28;20020;-73
2022/07/25 08:43:10;;;;;;;3.50;1.40;;;;;;;-150.27;100.00;61272.81;5270934;28;20323;-73
2022/07/25 08:45:53;;;;;;;6.80;2.38;;;;;;;-150.27;100.00;61272.81;5251741;28;20039;-73
2022/07/25 08:48:25;;;;;;;5.68;1.10;;;;;;;-150.27;100.00;61272.81;5270298;28;20044;-73
2022/07/25 08:50:58;;;;;;;4.60;1.25;;;;;;;-150.27;100.00;61272.81;5251717;28;20028;-73
2022/07/25 08:53:30;;;;;;;6.47;1.58;;;;;;;-150.27;100.00;61272.81;5271416;28;20013;-73
2022/07/25 08:56:06;;;;;;;5.70;1.60;;;;;;;-150.27;100.00;61272.81;5271133;28;20030;-73
2022/07/25 08:58:39;;;;;;;2.45;1.10;;;;;;;-150.27;100.00;61272.81;5269357;28;20048;-73
2022/07/25 09:01:12;;;;;;;6.07;1.60;;;;;;;-150.27;100.00;61272.81;5270462;28;20027;-72
2022/07/25 09:03:44;;;;;;;3.33;1.40;;;;;;;-150.27;100.00;61272.81;5252718;28;20200;-73
2022/07/25 09:06:17;;;;;;;7.03;1.55;;;;;;;-150.27;100.00;61272.81;5269216;28;20033;-72
2022/07/25 09:08:54;;;;;;;;;;;;;;;-150.27;100.00;61272.81;5252968;28;20039;-73
2022/07/25 09:11:32;;;;;;;6.97;1.88;;;;;;;-150.27;100.00;61272.81;5252184;28;19916;-77
2022/07/25 09:14:09;;;;;;;8.63;1.98;;;;;;;-150.27;100.00;61272.81;5269325;28;20517;-71
2022/07/25 09:16:42;;;;;;;5.40;1.55;;;;;;;-150.27;100.00;61272.81;5270681;28;20065;-71
2022/07/25 09:19:17;;;;;;;6.70;2.17;;;;;;;-150.27;100.00;61272.81;5268964;28;20502;-70
2022/07/25 09:22:03;;;;;;;9.15;1.58;;;;;;;-150.27;100.00;61272.81;5270279;28;20602;-70
2022/07/25 09:24:34;;;;;;;9.07;1.67;;;;;;;-150.27;100.00;61272.81;5251469;28;20032;-69
2022/07/25 09:27:09;;;;;;;7.72;1.83;;;;;;;-150.27;100.00;61272.81;5266266;28;20811;-70
2022/07/25 09:29:44;;;;;;;7.05;2.67;;;;;;;-150.27;100.00;61272.81;5266380;28;20387;-70
2022/07/25 09:32:21;;;;;;;6.72;2.13;;;;;;;-150.27;100.00;61272.81;5264362;28;20032;-71
2022/07/25 09:34:52;;;;;;;6.53;1.30;;;;;;;-150.27;100.00;61272.81;5268388;28;20077;-72
2022/07/25 09:37:25;;;;;;;6.07;1.85;;;;;;;-150.27;100.00;61272.81;5255743;28;20028;-71
2022/07/25 09:39:57;;;;;;;7.82;1.50;;;;;;;-150.27;100.00;61272.81;5249784;28;20824;-72
2022/07/25 09:42:35;;;;;;;5.03;1.73;;;;;;;-150.27;100.00;61272.81;5255850;28;20109;-72
2022/07/25 09:45:11;;;;;;;6.13;1.85;;;;;;;-150.27;100.00;61272.81;5256650;28;20024;-72
2022/07/25 09:47:56;;;;;;;5.78;2.00;;;;;;;-150.27;100.00;61272.81;5243379;28;20056;-72
2022/07/25 09:50:29;;;;;;;5.22;1.70;;;;;;;-150.27;100.00;61272.81;5233823;28;20043;-73
2022/07/25 09:53:01;;;;;;;5.15;1.83;;;;;;;-150.27;100.00;61272.81;5255859;28;20507;-72
2022/07/25 09:55:32;;;;;;;8.30;2.40;;;;;;;-150.27;100.00;61272.81;5238061;28;20029;-72
2022/07/25 09:58:04;;;;;;;5.00;1.73;;;;;;;-150.27;100.00;61272.81;5237349;28;20037;-73
2022/07/25 10:00:38;;;;;;;6.18;2.08;;;;;;;-150.27;100.00;61272.81;5238981;28;20065;-73
2022/07/25 10:03:17;;;;;;;5.80;1.70;;;;;;;-150.27;100.00;61272.81;5237476;28;20498;-73
2022/07/25 10:06:13;;;;;;;6.32;1.88;;;;;;;-150.27;100.00;61272.81;5242083;28;20087;-73
2022/07/25 10:08:46;;;;;;;7.93;2.55;;;;;;;-150.27;100.00;61272.81;5238771;28;20554;-72
2022/07/25 10:11:25;;;;;;;5.80;2.70;;;;;;;-150.27;100.00;61272.81;5238301;28;21360;-73
2022/07/25 10:14:10;;;;;;;5.03;1.85;;;;;;;-150.27;100.00;61272.81;5236925;28;20307;-73
2022/07/25 10:16:45;;;;;;;;;;;;;;;-150.27;100.00;61272.81;5220371;28;20033;-73
2022/07/25 10:19:34;;;;;;;6.15;1.83;;;;;;;-150.27;100.00;61272.81;5242608;28;19999;-73
2022/07/25 10:22:06;;;;;;;5.13;1.88;;;;;;;-150.27;100.00;61272.81;5235420;28;20033;-74
2022/07/25 10:24:42;;;;;;;6.72;2.10;;;;;;;-150.27;100.00;61272.81;5238655;28;20020;-73
2022/07/25 10:27:23;;;;;;;3.40;1.67;;;;;;;-150.27;100.00;61272.81;5248788;28;20021;-74
2022/07/25 10:29:54;;;;;;;7.40;1.63;;;;;;;-150.27;100.00;61272.81;5239267;28;20568;-73
2022/07/25 10:32:31;;;;;;;9.35;2.10;;;;;;;-150.27;100.00;61272.81;5243886;28;20040;-72
2022/07/25 10:35:14;;;;;;;6.45;1.75;;;;;;;-150.27;100.00;61272.81;5248438;28;20020;-72
2022/07/25 10:37:49;;;;;;;8.60;1.75;;;;;;;-150.27;100.00;61272.81;5251990;28;20120;-72
2022/07/25 10:40:47;;;;;;;9.10;2.20;;;;;;;-150.27;100.00;61272.81;5239511;28;20052;-73
2022/07/25 10:43:20;;;;;;;5.13;1.85;;;;;;;-150.27;100.00;61272.81;5236177;28;20072;-73
2022/07/25 10:45:55;;;;;;;5.40;1.58;;;;;;;-150.27;100.00;61272.81;5246745;28;20056;-74
2022/07/25 10:48:29;;;;;;;3.38;1.25;;;;;;;-150.27;100.00;61272.81;5240368;28;20020;-77
2022/07/25 10:51:07;;;;;;;6.50;1.80;;;;;;;-150.27;100.00;61272.81;5251943;28;20039;-73
2022/07/25 10:53:44;;;;;;;5.60;1.92;;;;;;;-150.27;100.00;61272.81;5247283;28;20035;-79
2022/07/25 10:56:21;;;;;;;6.40;2.28;;;;;;;-150.27;100.00;61272.81;5246951;28;20127;-71
2022/07/25 10:58:58;;;;;;;8.15;2.35;;;;;;;-150.27;100.00;61272.81;5263810;28;21366;-72
2022/07/25 11:01:33;;;;;;;15.20;2.92;;;;;;;-150.27;100.00;61272.81;5266329;28;20696;-73
2022/07/25 11:04:14;;;;;;;6.35;2.63;;;;;;;-150.27;100.00;61272.81;5265589;28;20029;-71
2022/07/25 11:06:45;;;;;;;7.25;2.42;;;;;;;-150.27;100.00;61272.81;5262071;28;20047;-72
2022/07/25 11:09:19;;;;;;;7.15;2.42;;;;;;;-150.27;100.00;61272.81;5264332;28;20036;-72
2022/07/25 11:11:53;;;;;;;8.25;2.75;;;;;;;-150.27;100.00;61272.81;5265123;28;20055;-71
2022/07/25 11:14:37;;;;;;;6.88;2.60;;;;;;;-150.27;100.00;61272.81;5242707;28;20353;-75
2022/07/25 11:17:18;;;;;;;11.07;3.40;;;;;;;-150.27;100.00;61272.81;5265487;28;20479;-76
2022/07/25 11:19:59;;;;;;;4.45;2.25;;;;;;;-150.27;100.00;61272.81;5266661;28;20027;-76
2022/07/25 11:22:31;;;;;;;10.23;2.75;;;;;;;-150.27;100.00;61272.81;5266078;28;20028;-77
2022/07/25 11:25:11;;;;;;;10.23;2.50;;;;;;;-150.27;100.00;61272.81;5266474;28;20021;-76
2022/07/25 11:27:42;;;;;;;8.90;2.60;;;;;;;-150.27;100.00;61272.81;5266822;28;20068;-77
2022/07/25 11:30:18;;;;;;;6.80;1.83;;;;;;;-150.27;100.00;61272.81;5266237;28;20108;-76
2022/07/25 11:32:53;;;;;;;9.30;2.60;;;;;;;-150.27;100.00;61272.81;5266968;28;20116;-76
2022/07/25 11:35:29;;;;;;;7.15;2.30;;;;;;;-150.27;100.00;61272.81;5248354;28;20111;-75
2022/07/25 11:38:02;;;;;;;5.45;3.10;;;;;;;-150.27;100.00;61272.81;5248620;28;20031;-73